Time,TemperatureF,DewpointF,PressureIn,WindDirection,WindDirectionDegrees,WindSpeedMPH,WindSpeedGustMPH,Humidity,HourlyPrecipIn,Conditions,Clouds,dailyrainin,SoftwareType,DateUTC
2013-11-11 00:01:00,44.3,36.8,30.08,East,90,0.0,0.0,75,0.00,,,0.00,WUHU216HW,2013-11-11 08:01:00,
2013-11-11 00:06:00,44.3,36.8,30.09,East,90,0.0,0.0,75,0.00,,,0.00,WUHU216HW,2013-11-11 08:06:00,
2013-11-11 00:11:00,44.1,36.6,30.09,SSE,158,0.9,1.1,75,0.00,,,0.00,WUHU216HW,2013-11-11 08:11:00,
2013-11-11 00:16:00,43.9,36.2,30.09,SSE,158,0.7,1.1,74,0.00,,,0.00,WUHU216HW,2013-11-11 08:16:00,
2013-11-11 00:21:00,43.6,35.8,30.09,SSE,158,1.1,1.6,74,0.00,,,0.00,WUHU216HW,2013-11-11 08:21:00,
2013-11-11 00:26:00,43.6,35.8,30.08,SSE,158,0.0,1.6,74,0.00,,,0.00,WUHU216HW,2013-11-11 08:26:00,
2013-11-11 00:31:00,43.2,35.5,30.08,SSE,158,0.0,1.1,74,0.00,,,0.00,WUHU216HW,2013-11-11 08:31:00,
2013-11-11 00:36:00,43.0,35.3,30.08,SSE,158,0.0,0.0,74,0.00,,,0.00,WUHU216HW,2013-11-11 08:36:00,
2013-11-11 00:41:00,42.8,35.1,30.08,SSE,158,0.0,0.7,74,0.00,,,0.00,WUHU216HW,2013-11-11 08:41:00,
2013-11-11 00:46:00,42.8,35.1,30.07,SSE,158,0.0,0.7,74,0.00,,,0.00,WUHU216HW,2013-11-11 08:46:00,
2013-11-11 00:51:00,42.7,34.9,30.07,SSE,158,0.0,0.0,74,0.00,,,0.00,WUHU216HW,2013-11-11 08:51:00,
2013-11-11 00:56:00,42.5,34.7,30.08,SSE,158,0.0,0.0,74,0.00,,,0.00,WUHU216HW,2013-11-11 08:56:00,
2013-11-11 01:01:00,42.1,34.4,30.07,SSE,158,0.0,0.2,74,0.00,,,0.00,WUHU216HW,2013-11-11 09:01:00,
2013-11-11 01:06:00,42.1,34.4,30.08,SE,135,1.1,1.1,74,0.00,,,0.00,WUHU216HW,2013-11-11 09:06:00,
2013-11-11 01:11:00,41.8,34.0,30.08,ESE,113,1.1,1.8,74,0.00,,,0.00,WUHU216HW,2013-11-11 09:11:00,
2013-11-11 01:16:00,41.6,33.8,30.08,ESE,113,1.1,1.8,74,0.00,,,0.00,WUHU216HW,2013-11-11 09:16:00,
2013-11-11 01:21:00,41.6,34.2,30.08,ESE,113,1.1,1.3,75,0.00,,,0.00,WUHU216HW,2013-11-11 09:21:00,
2013-11-11 01:26:00,41.4,34.0,30.09,ESE,113,0.4,1.3,75,0.00,,,0.00,WUHU216HW,2013-11-11 09:26:00,
2013-11-11 01:31:00,41.4,34.0,30.09,SE,135,0.4,1.3,75,0.00,,,0.00,WUHU216HW,2013-11-11 09:31:00,
2013-11-11 01:36:00,41.2,33.8,30.09,SE,135,1.1,1.3,75,0.00,,,0.00,WUHU216HW,2013-11-11 09:36:00,
2013-11-11 01:41:00,41.2,33.8,30.09,ESE,113,0.2,1.1,75,0.00,,,0.00,WUHU216HW,2013-11-11 09:41:00,
2013-11-11 01:46:00,41.0,33.7,30.09,SE,135,0.7,1.3,75,0.00,,,0.00,WUHU216HW,2013-11-11 09:46:00,
2013-11-11 01:51:00,41.2,34.2,30.09,SE,135,1.1,1.3,76,0.00,,,0.00,WUHU216HW,2013-11-11 09:51:00,
2013-11-11 01:56:00,41.2,34.2,30.10,SSE,158,0.7,1.1,76,0.00,,,0.00,WUHU216HW,2013-11-11 09:56:00,
2013-11-11 02:01:00,41.2,34.5,30.09,SE,135,1.1,1.1,77,0.00,,,0.00,WUHU216HW,2013-11-11 10:01:00,
2013-11-11 02:06:00,41.4,34.7,30.10,SE,135,0.2,1.1,77,0.00,,,0.00,WUHU216HW,2013-11-11 10:06:00,
2013-11-11 02:11:00,41.4,34.7,30.10,WSW,248,0.0,0.9,77,0.00,,,0.00,WUHU216HW,2013-11-11 10:11:00,
2013-11-11 02:16:00,41.4,34.7,30.11,WSW,248,0.4,1.1,77,0.00,,,0.00,WUHU216HW,2013-11-11 10:16:00,
2013-11-11 02:21:00,41.8,35.4,30.11,WSW,248,0.0,1.1,78,0.00,,,0.00,WUHU216HW,2013-11-11 10:21:00,
2013-11-11 02:26:00,42.1,36.0,30.11,SSE,158,0.2,0.9,79,0.00,,,0.00,WUHU216HW,2013-11-11 10:26:00,
2013-11-11 02:31:00,42.5,36.4,30.11,East,90,2.5,2.5,79,0.00,,,0.00,WUHU216HW,2013-11-11 10:31:00,
2013-11-11 02:36:00,42.8,36.7,30.10,ESE,113,1.6,2.5,79,0.00,,,0.00,WUHU216HW,2013-11-11 10:36:00,
2013-11-11 02:41:00,42.8,37.1,30.10,East,90,2.2,2.2,80,0.00,,,0.00,WUHU216HW,2013-11-11 10:41:00,
2013-11-11 02:46:00,43.2,37.1,30.09,SE,135,0.4,2.7,79,0.00,,,0.00,WUHU216HW,2013-11-11 10:46:00,
2013-11-11 02:51:00,43.4,37.3,30.10,ESE,113,0.4,2.7,79,0.00,,,0.00,WUHU216HW,2013-11-11 10:51:00,
2013-11-11 02:56:00,43.4,37.3,30.10,SSE,158,1.1,1.1,79,0.00,,,0.00,WUHU216HW,2013-11-11 10:56:00,
2013-11-11 03:01:00,43.4,37.3,30.10,SE,135,1.6,1.6,79,0.00,,,0.00,WUHU216HW,2013-11-11 11:01:00,
2013-11-11 03:06:00,43.4,37.3,30.10,ESE,113,1.1,1.6,79,0.00,,,0.00,WUHU216HW,2013-11-11 11:06:00,
2013-11-11 03:11:00,43.4,37.3,30.10,ESE,113,0.0,1.3,79,0.00,,,0.00,WUHU216HW,2013-11-11 11:11:00,
2013-11-11 03:16:00,43.4,37.3,30.10,ESE,113,0.0,0.9,79,0.00,,,0.00,WUHU216HW,2013-11-11 11:16:00,
2013-11-11 03:21:00,43.2,37.1,30.10,NE,45,0.0,0.4,79,0.00,,,0.00,WUHU216HW,2013-11-11 11:21:00,
2013-11-11 03:26:00,43.2,37.1,30.10,NE,45,1.1,1.1,79,0.00,,,0.00,WUHU216HW,2013-11-11 11:26:00,
2013-11-11 03:31:00,43.2,37.4,30.10,NE,45,0.7,1.1,80,0.00,,,0.00,WUHU216HW,2013-11-11 11:31:00,
2013-11-11 03:36:00,43.0,36.9,30.10,ENE,68,0.7,1.1,79,0.00,,,0.00,WUHU216HW,2013-11-11 11:36:00,
2013-11-11 03:41:00,42.8,36.7,30.10,ENE,68,0.4,1.1,79,0.00,,,0.00,WUHU216HW,2013-11-11 11:41:00,
2013-11-11 03:46:00,42.8,36.7,30.11,ENE,68,0.4,0.7,79,0.00,,,0.00,WUHU216HW,2013-11-11 11:46:00,
2013-11-11 03:51:00,42.7,36.5,30.11,North,0,0.0,0.4,79,0.00,,,0.00,WUHU216HW,2013-11-11 11:51:00,
2013-11-11 03:56:00,42.7,36.5,30.11,North,0,0.0,0.4,79,0.00,,,0.00,WUHU216HW,2013-11-11 11:56:00,
2013-11-11 04:01:00,42.8,36.7,30.11,North,0,0.0,0.4,79,0.00,,,0.00,WUHU216HW,2013-11-11 12:01:00,
2013-11-11 04:06:00,42.8,37.1,30.12,North,0,0.0,0.0,80,0.00,,,0.00,WUHU216HW,2013-11-11 12:06:00,
2013-11-11 04:11:00,43.0,37.3,30.12,North,0,0.0,0.0,80,0.00,,,0.00,WUHU216HW,2013-11-11 12:11:00,
2013-11-11 04:16:00,43.4,37.9,30.11,East,90,1.1,1.6,81,0.00,,,0.00,WUHU216HW,2013-11-11 12:16:00,
2013-11-11 04:21:00,43.6,38.1,30.12,ESE,113,0.2,1.6,81,0.00,,,0.00,WUHU216HW,2013-11-11 12:21:00,
2013-11-11 04:26:00,43.9,38.4,30.12,ESE,113,0.0,1.3,81,0.00,,,0.00,WUHU216HW,2013-11-11 12:26:00,
2013-11-11 04:31:00,44.1,38.6,30.12,East,90,2.5,2.5,81,0.00,,,0.00,WUHU216HW,2013-11-11 12:31:00,
2013-11-11 04:36:00,44.3,38.8,30.11,East,90,2.5,3.4,81,0.00,,,0.00,WUHU216HW,2013-11-11 12:36:00,
2013-11-11 04:41:00,44.6,39.2,30.11,ESE,113,1.8,3.4,81,0.00,,,0.00,WUHU216HW,2013-11-11 12:41:00,
2013-11-11 04:46:00,44.8,39.3,30.11,ESE,113,0.4,1.8,81,0.00,,,0.00,WUHU216HW,2013-11-11 12:46:00,
2013-11-11 04:51:00,45.0,39.5,30.10,ESE,113,2.0,2.0,81,0.00,,,0.00,WUHU216HW,2013-11-11 12:51:00,
2013-11-11 04:56:00,45.4,39.9,30.09,SE,135,0.9,3.6,81,0.00,,,0.00,WUHU216HW,2013-11-11 12:56:00,
2013-11-11 05:01:00,45.5,40.1,30.09,SE,135,1.3,3.6,81,0.00,,,0.00,WUHU216HW,2013-11-11 13:01:00,
2013-11-11 05:06:00,45.7,40.2,30.09,ESE,113,1.1,1.3,81,0.00,,,0.00,WUHU216HW,2013-11-11 13:06:00,
2013-11-11 05:11:00,45.9,40.4,30.08,ESE,113,0.0,1.8,81,0.00,,,0.00,WUHU216HW,2013-11-11 13:11:00,
2013-11-11 05:16:00,46.1,40.6,30.08,ESE,113,0.0,1.8,81,0.00,,,0.00,WUHU216HW,2013-11-11 13:16:00,
2013-11-11 05:21:00,46.1,40.6,30.08,ESE,113,0.7,1.1,81,0.00,,,0.00,WUHU216HW,2013-11-11 13:21:00,
2013-11-11 05:26:00,46.3,40.8,30.07,ESE,113,0.0,0.9,81,0.00,,,0.00,WUHU216HW,2013-11-11 13:26:00,
2013-11-11 05:31:00,46.4,41.0,30.07,ESE,113,0.0,0.4,81,0.00,,,0.00,WUHU216HW,2013-11-11 13:31:00,
2013-11-11 05:36:00,46.4,41.0,30.07,SSE,158,0.9,0.9,81,0.00,,,0.00,WUHU216HW,2013-11-11 13:36:00,
2013-11-11 05:41:00,46.3,40.8,30.07,SSE,158,0.0,1.1,81,0.00,,,0.00,WUHU216HW,2013-11-11 13:41:00,
2013-11-11 05:46:00,46.3,40.5,30.07,SSE,158,0.2,1.1,80,0.00,,,0.00,WUHU216HW,2013-11-11 13:46:00,
2013-11-11 05:51:00,46.1,40.3,30.07,SSE,158,0.4,1.1,80,0.00,,,0.00,WUHU216HW,2013-11-11 13:51:00,
2013-11-11 05:56:00,46.1,40.3,30.07,SSE,158,0.4,1.1,80,0.00,,,0.00,WUHU216HW,2013-11-11 13:56:00,
2013-11-11 06:01:00,46.1,40.3,30.07,SSE,158,0.0,0.7,80,0.00,,,0.00,WUHU216HW,2013-11-11 14:01:00,
2013-11-11 06:06:00,46.3,40.5,30.07,SSE,158,0.0,0.0,80,0.00,,,0.00,WUHU216HW,2013-11-11 14:06:00,
2013-11-11 06:11:00,46.3,40.8,30.07,SSE,158,0.7,0.9,81,0.00,,,0.00,WUHU216HW,2013-11-11 14:11:00,
2013-11-11 06:16:00,46.4,41.0,30.07,SSW,203,1.8,1.8,81,0.00,,,0.00,WUHU216HW,2013-11-11 14:16:00,
2013-11-11 06:21:00,46.4,41.0,30.08,WSW,248,1.1,2.0,81,0.00,,,0.00,WUHU216HW,2013-11-11 14:21:00,
2013-11-11 06:26:00,46.4,41.0,30.08,WSW,248,2.0,2.0,81,0.00,,,0.00,WUHU216HW,2013-11-11 14:26:00,
2013-11-11 06:31:00,46.6,41.1,30.08,SW,225,1.8,2.0,81,0.00,,,0.00,WUHU216HW,2013-11-11 14:31:00,
2013-11-11 06:36:00,46.8,41.3,30.08,SW,225,2.0,2.0,81,0.00,,,0.00,WUHU216HW,2013-11-11 14:36:00,
2013-11-11 06:41:00,46.8,41.3,30.09,SSW,203,0.4,2.5,81,0.00,,,0.00,WUHU216HW,2013-11-11 14:41:00,
2013-11-11 06:46:00,47.0,42.1,30.08,SE,135,0.2,2.5,83,0.00,,,0.00,WUHU216HW,2013-11-11 14:46:00,
2013-11-11 06:51:00,46.8,42.0,30.08,ESE,113,0.0,1.1,83,0.00,,,0.00,WUHU216HW,2013-11-11 14:51:00,
2013-11-11 06:56:00,46.8,42.0,30.08,NNW,338,0.9,1.1,83,0.00,,,0.00,WUHU216HW,2013-11-11 14:56:00,
2013-11-11 07:01:00,46.8,42.0,30.08,NNW,338,0.9,0.9,83,0.00,,,0.00,WUHU216HW,2013-11-11 15:01:00,
2013-11-11 07:06:00,46.8,42.0,30.08,WSW,248,0.9,1.6,83,0.00,,,0.00,WUHU216HW,2013-11-11 15:06:00,
2013-11-11 07:11:00,46.8,42.0,30.09,WNW,293,1.3,1.6,83,0.00,,,0.00,WUHU216HW,2013-11-11 15:11:00,
2013-11-11 07:16:00,46.8,42.0,30.09,West,270,3.4,4.7,83,0.00,,,0.00,WUHU216HW,2013-11-11 15:16:00,
2013-11-11 07:21:00,47.0,42.1,30.09,West,270,1.6,4.7,83,0.00,,,0.00,WUHU216HW,2013-11-11 15:21:00,
2013-11-11 07:26:00,47.2,42.6,30.09,WNW,293,1.3,3.4,84,0.00,,,0.00,WUHU216HW,2013-11-11 15:26:00,
2013-11-11 07:31:00,47.2,42.6,30.09,West,270,0.7,2.0,84,0.00,,,0.00,WUHU216HW,2013-11-11 15:31:00,
2013-11-11 07:36:00,47.2,42.6,30.09,WNW,293,1.1,1.6,84,0.00,,,0.00,WUHU216HW,2013-11-11 15:36:00,
2013-11-11 07:41:00,47.2,42.6,30.09,WNW,293,0.2,1.3,84,0.00,,,0.00,WUHU216HW,2013-11-11 15:41:00,
2013-11-11 07:46:00,47.3,42.8,30.09,ENE,68,0.0,0.9,84,0.00,,,0.00,WUHU216HW,2013-11-11 15:46:00,
2013-11-11 07:51:00,47.3,42.8,30.10,ESE,113,1.1,1.1,84,0.00,,,0.00,WUHU216HW,2013-11-11 15:51:00,
2013-11-11 07:56:00,47.7,43.1,30.10,ESE,113,0.0,1.1,84,0.00,,,0.00,WUHU216HW,2013-11-11 15:56:00,
2013-11-11 08:01:00,48.1,43.5,30.11,South,180,0.7,2.0,84,0.00,,,0.00,WUHU216HW,2013-11-11 16:01:00,
2013-11-11 08:06:00,48.2,43.6,30.11,SSE,158,1.8,3.1,84,0.00,,,0.00,WUHU216HW,2013-11-11 16:06:00,
2013-11-11 08:11:00,48.6,43.9,30.11,SE,135,2.2,3.8,84,0.00,,,0.00,WUHU216HW,2013-11-11 16:11:00,
2013-11-11 08:16:00,49.0,44.3,30.11,SSE,158,3.6,3.8,84,0.00,,,0.00,WUHU216HW,2013-11-11 16:16:00,
2013-11-11 08:21:00,49.1,44.1,30.11,SSE,158,4.0,4.0,83,0.00,,,0.00,WUHU216HW,2013-11-11 16:21:00,
2013-11-11 08:26:00,49.3,44.7,30.11,ESE,113,0.9,4.0,84,0.00,,,0.00,WUHU216HW,2013-11-11 16:26:00,
2013-11-11 08:31:00,49.3,44.3,30.11,SE,135,1.1,4.5,83,0.00,,,0.00,WUHU216HW,2013-11-11 16:31:00,
2013-11-11 08:36:00,49.1,44.1,30.11,East,90,2.5,4.5,83,0.00,,,0.00,WUHU216HW,2013-11-11 16:36:00,
2013-11-11 08:41:00,49.3,44.3,30.10,East,90,4.0,4.0,83,0.00,,,0.00,WUHU216HW,2013-11-11 16:41:00,
2013-11-11 08:46:00,49.3,44.0,30.10,East,90,4.3,4.3,82,0.00,,,0.00,WUHU216HW,2013-11-11 16:46:00,
2013-11-11 08:51:00,49.5,44.5,30.10,SE,135,1.1,4.3,83,0.00,,,0.00,WUHU216HW,2013-11-11 16:51:00,
2013-11-11 08:56:00,49.9,44.6,30.10,SSE,158,0.4,4.0,82,0.00,,,0.00,WUHU216HW,2013-11-11 16:56:00,
2013-11-11 09:01:00,50.0,44.7,30.10,North,0,0.7,2.5,82,0.00,,,0.00,WUHU216HW,2013-11-11 17:01:00,
2013-11-11 09:06:00,50.0,44.4,30.09,North,0,1.3,2.5,81,0.00,,,0.00,WUHU216HW,2013-11-11 17:06:00,
2013-11-11 09:11:00,50.4,44.7,30.10,WNW,293,0.4,1.3,81,0.00,,,0.00,WUHU216HW,2013-11-11 17:11:00,
2013-11-11 09:16:00,50.6,44.6,30.10,North,0,1.1,1.1,80,0.00,,,0.00,WUHU216HW,2013-11-11 17:16:00,
2013-11-11 09:21:00,50.9,45.0,30.10,NNE,23,0.7,2.2,80,0.00,,,0.00,WUHU216HW,2013-11-11 17:21:00,
2013-11-11 09:26:00,51.1,45.2,30.10,SW,225,1.1,2.2,80,0.00,,,0.00,WUHU216HW,2013-11-11 17:26:00,
2013-11-11 09:31:00,51.1,45.2,30.11,NE,45,0.7,1.3,80,0.00,,,0.00,WUHU216HW,2013-11-11 17:31:00,
2013-11-11 09:36:00,51.5,45.2,30.11,SW,225,1.3,1.3,79,0.00,,,0.00,WUHU216HW,2013-11-11 17:36:00,
2013-11-11 09:41:00,51.8,45.5,30.11,West,270,1.1,1.8,79,0.00,,,0.00,WUHU216HW,2013-11-11 17:41:00,
2013-11-11 09:46:00,52.2,45.5,30.11,ENE,68,1.8,1.8,78,0.00,,,0.00,WUHU216HW,2013-11-11 17:46:00,
2013-11-11 09:51:00,52.7,45.7,30.12,NW,315,0.2,1.8,77,0.00,,,0.00,WUHU216HW,2013-11-11 17:51:00,
2013-11-11 09:56:00,53.1,45.7,30.12,SE,135,0.9,1.6,76,0.00,,,0.00,WUHU216HW,2013-11-11 17:56:00,
2013-11-11 10:01:00,53.5,46.1,30.12,SSW,203,1.6,1.6,76,0.00,,,0.00,WUHU216HW,2013-11-11 18:01:00,
2013-11-11 10:06:00,54.2,46.8,30.12,SE,135,0.9,1.8,76,0.00,,,0.00,WUHU216HW,2013-11-11 18:06:00,
2013-11-11 10:11:00,54.9,47.4,30.12,NNW,338,1.8,2.7,76,0.00,,,0.00,WUHU216HW,2013-11-11 18:11:00,
2013-11-11 10:16:00,55.6,47.1,30.12,North,0,1.8,2.7,73,0.00,,,0.00,WUHU216HW,2013-11-11 18:16:00,
2013-11-11 10:21:00,56.2,47.6,30.12,NNW,338,0.9,2.5,73,0.00,,,0.00,WUHU216HW,2013-11-11 18:21:00,
2013-11-11 10:26:00,56.7,48.1,30.12,SW,225,1.1,2.5,73,0.00,,,0.00,WUHU216HW,2013-11-11 18:26:00,
2013-11-11 10:31:00,57.1,48.4,30.12,WNW,293,0.7,2.9,73,0.00,,,0.00,WUHU216HW,2013-11-11 18:31:00,
2013-11-11 10:36:00,57.2,48.2,30.12,SSW,203,2.9,3.8,72,0.00,,,0.00,WUHU216HW,2013-11-11 18:36:00,
2013-11-11 10:41:00,57.2,48.2,30.12,WSW,248,2.7,3.8,72,0.00,,,0.00,WUHU216HW,2013-11-11 18:41:00,
2013-11-11 10:46:00,57.4,48.4,30.12,WSW,248,1.8,2.9,72,0.00,,,0.00,WUHU216HW,2013-11-11 18:46:00,
2013-11-11 10:51:00,57.6,48.2,30.12,SSW,203,2.7,2.9,71,0.00,,,0.00,WUHU216HW,2013-11-11 18:51:00,
2013-11-11 10:56:00,58.0,48.6,30.12,SW,225,2.7,3.1,71,0.00,,,0.00,WUHU216HW,2013-11-11 18:56:00,
2013-11-11 11:01:00,58.3,49.0,30.13,WSW,248,0.4,3.1,71,0.00,,,0.00,WUHU216HW,2013-11-11 19:01:00,
2013-11-11 11:06:00,58.9,49.1,30.12,SW,225,1.3,2.0,70,0.00,,,0.00,WUHU216HW,2013-11-11 19:06:00,
2013-11-11 11:11:00,59.4,49.7,30.12,SSE,158,0.0,1.8,70,0.00,,,0.00,WUHU216HW,2013-11-11 19:11:00,
2013-11-11 11:16:00,59.8,49.2,30.12,ENE,68,1.8,2.5,68,0.00,,,0.00,WUHU216HW,2013-11-11 19:16:00,
2013-11-11 11:21:00,60.1,49.6,30.12,North,0,0.0,2.5,68,0.00,,,0.00,WUHU216HW,2013-11-11 19:21:00,
2013-11-11 11:26:00,60.7,50.1,30.11,ESE,113,3.1,3.1,68,0.00,,,0.00,WUHU216HW,2013-11-11 19:26:00,
2013-11-11 11:31:00,61.6,50.1,30.11,NE,45,2.0,3.1,66,0.00,,,0.00,WUHU216HW,2013-11-11 19:31:00,
2013-11-11 11:36:00,62.5,50.5,30.11,SE,135,2.2,3.8,65,0.00,,,0.00,WUHU216HW,2013-11-11 19:36:00,
2013-11-11 11:41:00,63.2,50.8,30.10,ENE,68,3.6,4.7,64,0.00,,,0.00,WUHU216HW,2013-11-11 19:41:00,
2013-11-11 11:46:00,63.7,50.4,30.10,NE,45,2.5,4.7,62,0.00,,,0.00,WUHU216HW,2013-11-11 19:46:00,
2013-11-11 11:51:00,63.9,49.8,30.10,ESE,113,2.5,4.7,60,0.00,,,0.00,WUHU216HW,2013-11-11 19:51:00,
2013-11-11 11:56:00,63.7,50.1,30.10,NE,45,3.4,5.8,61,0.00,,,0.00,WUHU216HW,2013-11-11 19:56:00,
2013-11-11 12:01:00,64.1,49.9,30.09,East,90,3.4,5.8,60,0.00,,,0.00,WUHU216HW,2013-11-11 20:01:00,
2013-11-11 12:06:00,64.1,49.4,30.09,North,0,1.3,4.5,59,0.00,,,0.00,WUHU216HW,2013-11-11 20:06:00,
2013-11-11 12:11:00,64.3,48.6,30.09,NNE,23,4.9,4.9,57,0.00,,,0.00,WUHU216HW,2013-11-11 20:11:00,
2013-11-11 12:16:00,64.6,49.0,30.09,NNE,23,1.3,4.9,57,0.00,,,0.00,WUHU216HW,2013-11-11 20:16:00,
2013-11-11 12:21:00,64.6,49.0,30.09,North,0,2.0,4.0,57,0.00,,,0.00,WUHU216HW,2013-11-11 20:21:00,
2013-11-11 12:26:00,65.0,48.8,30.08,NE,45,1.3,4.0,56,0.00,,,0.00,WUHU216HW,2013-11-11 20:26:00,
2013-11-11 12:31:00,65.5,47.4,30.08,NNW,338,4.0,4.7,52,0.00,,,0.00,WUHU216HW,2013-11-11 20:31:00,
2013-11-11 12:36:00,65.9,47.8,30.08,North,0,2.7,4.9,52,0.00,,,0.00,WUHU216HW,2013-11-11 20:36:00,
2013-11-11 12:41:00,66.1,46.4,30.08,North,0,5.4,7.4,49,0.00,,,0.00,WUHU216HW,2013-11-11 20:41:00,
2013-11-11 12:46:00,66.1,46.4,30.08,NNE,23,6.3,7.4,49,0.00,,,0.00,WUHU216HW,2013-11-11 20:46:00,
2013-11-11 12:51:00,65.9,46.2,30.08,NNE,23,3.8,6.3,49,0.00,,,0.00,WUHU216HW,2013-11-11 20:51:00,
2013-11-11 12:56:00,65.9,46.2,30.08,North,0,2.9,6.5,49,0.00,,,0.00,WUHU216HW,2013-11-11 20:56:00,
2013-11-11 13:01:00,65.9,46.8,30.08,North,0,3.1,6.5,50,0.00,,,0.00,WUHU216HW,2013-11-11 21:01:00,
2013-11-11 13:06:00,65.9,46.8,30.07,NE,45,4.7,6.5,50,0.00,,,0.00,WUHU216HW,2013-11-11 21:06:00,
2013-11-11 13:11:00,65.5,45.8,30.07,NE,45,5.6,6.7,49,0.00,,,0.00,WUHU216HW,2013-11-11 21:11:00,
2013-11-11 13:16:00,65.7,46.0,30.07,North,0,5.4,6.7,49,0.00,,,0.00,WUHU216HW,2013-11-11 21:16:00,
2013-11-11 13:21:00,65.9,46.2,30.07,NNE,23,5.6,6.0,49,0.00,,,0.00,WUHU216HW,2013-11-11 21:21:00,
2013-11-11 13:26:00,66.2,46.5,30.07,NNW,338,4.5,6.0,49,0.00,,,0.00,WUHU216HW,2013-11-11 21:26:00,
2013-11-11 13:31:00,66.4,46.7,30.07,NE,45,6.9,6.9,49,0.00,,,0.00,WUHU216HW,2013-11-11 21:31:00,
2013-11-11 13:36:00,66.6,46.3,30.07,NNE,23,4.9,6.9,48,0.00,,,0.00,WUHU216HW,2013-11-11 21:36:00,
2013-11-11 13:41:00,66.6,46.9,30.07,North,0,4.0,5.4,49,0.00,,,0.00,WUHU216HW,2013-11-11 21:41:00,
2013-11-11 13:46:00,66.4,46.7,30.07,NE,45,5.4,5.4,49,0.00,,,0.00,WUHU216HW,2013-11-11 21:46:00,
2013-11-11 13:51:00,66.4,46.2,30.07,NE,45,5.6,5.6,48,0.00,,,0.00,WUHU216HW,2013-11-11 21:51:00,
2013-11-11 13:56:00,66.4,46.7,30.06,NNE,23,3.8,5.6,49,0.00,,,0.00,WUHU216HW,2013-11-11 21:56:00,
2013-11-11 14:01:00,66.8,47.1,30.06,ENE,68,2.2,3.8,49,0.00,,,0.00,WUHU216HW,2013-11-11 22:01:00,
2013-11-11 14:06:00,66.8,46.4,30.06,NE,45,3.8,4.9,48,0.00,,,0.00,WUHU216HW,2013-11-11 22:06:00,
2013-11-11 14:11:00,67.1,47.3,30.06,North,0,4.0,4.9,49,0.00,,,0.00,WUHU216HW,2013-11-11 22:11:00,
2013-11-11 14:16:00,67.1,46.2,30.06,NE,45,5.1,6.9,47,0.00,,,0.00,WUHU216HW,2013-11-11 22:16:00,
2013-11-11 14:21:00,67.0,46.6,30.05,NNE,23,2.9,6.9,48,0.00,,,0.00,WUHU216HW,2013-11-11 22:21:00,
2013-11-11 14:26:00,67.1,47.3,30.05,NE,45,2.7,4.7,49,0.00,,,0.00,WUHU216HW,2013-11-11 22:26:00,
2013-11-11 14:31:00,67.1,46.8,30.05,North,0,1.8,4.5,48,0.00,,,0.00,WUHU216HW,2013-11-11 22:31:00,
2013-11-11 14:36:00,67.1,46.8,30.06,NNE,23,2.5,4.3,48,0.00,,,0.00,WUHU216HW,2013-11-11 22:36:00,
2013-11-11 14:41:00,67.0,46.0,30.05,NNE,23,3.4,5.1,47,0.00,,,0.00,WUHU216HW,2013-11-11 22:41:00,
2013-11-11 14:46:00,66.8,47.1,30.05,NNE,23,1.1,5.1,49,0.00,,,0.00,WUHU216HW,2013-11-11 22:46:00,
2013-11-11 14:51:00,66.8,46.4,30.05,NNE,23,2.5,3.4,48,0.00,,,0.00,WUHU216HW,2013-11-11 22:51:00,
2013-11-11 14:56:00,66.8,47.1,30.05,NNE,23,0.4,3.4,49,0.00,,,0.00,WUHU216HW,2013-11-11 22:56:00,
2013-11-11 15:01:00,66.6,46.9,30.05,NNE,23,2.5,2.7,49,0.00,,,0.00,WUHU216HW,2013-11-11 23:01:00,
2013-11-11 15:06:00,66.6,46.9,30.05,NNE,23,2.0,2.9,49,0.00,,,0.00,WUHU216HW,2013-11-11 23:06:00,
2013-11-11 15:11:00,66.6,46.3,30.06,North,0,2.7,2.9,48,0.00,,,0.00,WUHU216HW,2013-11-11 23:11:00,
2013-11-11 15:16:00,66.6,46.9,30.06,NNE,23,2.0,2.7,49,0.00,,,0.00,WUHU216HW,2013-11-11 23:16:00,
2013-11-11 15:21:00,66.6,46.3,30.06,NNE,23,3.1,3.4,48,0.00,,,0.00,WUHU216HW,2013-11-11 23:21:00,
2013-11-11 15:26:00,66.4,46.2,30.06,North,0,1.8,3.4,48,0.00,,,0.00,WUHU216HW,2013-11-11 23:26:00,
2013-11-11 15:31:00,66.4,46.7,30.06,North,0,1.3,3.4,49,0.00,,,0.00,WUHU216HW,2013-11-11 23:31:00,
2013-11-11 15:36:00,66.2,46.5,30.06,North,0,4.0,4.0,49,0.00,,,0.00,WUHU216HW,2013-11-11 23:36:00,
2013-11-11 15:41:00,66.1,46.4,30.06,NNE,23,1.8,4.7,49,0.00,,,0.00,WUHU216HW,2013-11-11 23:41:00,
2013-11-11 15:46:00,66.1,46.4,30.06,NE,45,2.0,4.7,49,0.00,,,0.00,WUHU216HW,2013-11-11 23:46:00,
2013-11-11 15:51:00,65.9,46.8,30.07,NE,45,2.0,2.9,50,0.00,,,0.00,WUHU216HW,2013-11-11 23:51:00,
2013-11-11 15:56:00,66.1,47.0,30.07,NE,45,2.0,2.5,50,0.00,,,0.00,WUHU216HW,2013-11-11 23:56:00,
2013-11-11 16:01:00,65.9,46.8,30.07,ENE,68,1.8,3.4,50,0.00,,,0.00,WUHU216HW,2013-11-12 00:01:00,
2013-11-11 16:06:00,65.9,46.8,30.08,East,90,1.1,3.4,50,0.00,,,0.00,WUHU216HW,2013-11-12 00:06:00,
2013-11-11 16:11:00,65.9,47.3,30.07,ENE,68,1.6,2.2,51,0.00,,,0.00,WUHU216HW,2013-11-12 00:11:00,
2013-11-11 16:16:00,65.9,47.3,30.07,NE,45,1.1,2.5,51,0.00,,,0.00,WUHU216HW,2013-11-12 00:16:00,
2013-11-11 16:21:00,65.9,46.8,30.08,NE,45,0.0,2.5,50,0.00,,,0.00,WUHU216HW,2013-11-12 00:21:00,
2013-11-11 16:26:00,65.7,47.1,30.08,NE,45,0.9,1.6,51,0.00,,,0.00,WUHU216HW,2013-11-12 00:26:00,
2013-11-11 16:31:00,65.5,46.9,30.08,NE,45,0.0,0.9,51,0.00,,,0.00,WUHU216HW,2013-11-12 00:31:00,
2013-11-11 16:36:00,65.0,46.9,30.09,NE,45,0.0,0.4,52,0.00,,,0.00,WUHU216HW,2013-11-12 00:36:00,
2013-11-11 16:41:00,64.8,46.7,30.09,NE,45,0.0,0.0,52,0.00,,,0.00,WUHU216HW,2013-11-12 00:41:00,
2013-11-11 16:46:00,64.4,46.8,30.08,NE,45,0.0,0.0,53,0.00,,,0.00,WUHU216HW,2013-11-12 00:46:00,
2013-11-11 16:51:00,64.1,46.5,30.08,NE,45,1.1,1.1,53,0.00,,,0.00,WUHU216HW,2013-11-12 00:51:00,
2013-11-11 16:56:00,63.4,45.8,30.08,NE,45,0.4,1.1,53,0.00,,,0.00,WUHU216HW,2013-11-12 00:56:00,
2013-11-11 17:01:00,62.8,45.4,30.08,NE,45,0.0,0.9,53,0.00,,,0.00,WUHU216HW,2013-11-12 01:01:00,
2013-11-11 17:06:00,62.5,45.6,30.07,NE,45,0.4,0.4,54,0.00,,,0.00,WUHU216HW,2013-11-12 01:06:00,
2013-11-11 17:11:00,61.9,45.0,30.07,NE,45,0.0,0.4,54,0.00,,,0.00,WUHU216HW,2013-11-12 01:11:00,
2013-11-11 17:16:00,61.4,44.6,30.07,ENE,68,1.1,1.6,54,0.00,,,0.00,WUHU216HW,2013-11-12 01:16:00,
2013-11-11 17:21:00,61.0,44.7,30.07,ENE,68,1.3,1.6,55,0.00,,,0.00,WUHU216HW,2013-11-12 01:21:00,
2013-11-11 17:26:00,60.7,44.8,30.07,ENE,68,1.1,1.3,56,0.00,,,0.00,WUHU216HW,2013-11-12 01:26:00,
2013-11-11 17:31:00,60.3,44.6,30.07,ESE,113,0.9,1.3,56,0.00,,,0.00,WUHU216HW,2013-11-12 01:31:00,
2013-11-11 17:36:00,60.1,44.4,30.07,ESE,113,1.8,1.8,56,0.00,,,0.00,WUHU216HW,2013-11-12 01:36:00,
2013-11-11 17:41:00,59.8,44.5,30.08,SE,135,1.1,2.2,57,0.00,,,0.00,WUHU216HW,2013-11-12 01:41:00,
2013-11-11 17:46:00,59.6,44.3,30.08,SE,135,0.7,2.2,57,0.00,,,0.00,WUHU216HW,2013-11-12 01:46:00,
2013-11-11 17:51:00,59.4,44.1,30.08,ESE,113,0.9,1.3,57,0.00,,,0.00,WUHU216HW,2013-11-12 01:51:00,
2013-11-11 17:56:00,59.4,44.1,30.08,ESE,113,0.0,1.3,57,0.00,,,0.00,WUHU216HW,2013-11-12 01:56:00,
2013-11-11 18:01:00,59.0,43.7,30.09,ESE,113,0.2,0.7,57,0.00,,,0.00,WUHU216HW,2013-11-12 02:01:00,
2013-11-11 18:06:00,59.0,44.3,30.09,ESE,113,0.7,0.7,58,0.00,,,0.00,WUHU216HW,2013-11-12 02:06:00,
2013-11-11 18:11:00,58.9,44.1,30.09,SE,135,1.1,1.1,58,0.00,,,0.00,WUHU216HW,2013-11-12 02:11:00,
2013-11-11 18:16:00,58.7,43.9,30.09,SE,135,0.2,1.1,58,0.00,,,0.00,WUHU216HW,2013-11-12 02:16:00,
2013-11-11 18:21:00,58.7,43.9,30.09,SE,135,0.0,1.1,58,0.00,,,0.00,WUHU216HW,2013-11-12 02:21:00,
2013-11-11 18:26:00,58.3,43.6,30.09,SE,135,0.0,0.4,58,0.00,,,0.00,WUHU216HW,2013-11-12 02:26:00,
2013-11-11 18:31:00,58.1,43.5,30.10,SE,135,0.0,0.4,58,0.00,,,0.00,WUHU216HW,2013-11-12 02:31:00,
2013-11-11 18:36:00,58.0,43.3,30.09,NE,45,2.0,2.0,58,0.00,,,0.00,WUHU216HW,2013-11-12 02:36:00,
2013-11-11 18:41:00,57.8,43.1,30.10,NE,45,0.7,2.0,58,0.00,,,0.00,WUHU216HW,2013-11-12 02:41:00,
2013-11-11 18:46:00,57.6,42.9,30.10,East,90,1.1,1.3,58,0.00,,,0.00,WUHU216HW,2013-11-12 02:46:00,
2013-11-11 18:51:00,57.4,42.8,30.10,East,90,1.3,1.8,58,0.00,,,0.00,WUHU216HW,2013-11-12 02:51:00,
2013-11-11 18:56:00,57.2,43.1,30.11,East,90,0.0,1.8,59,0.00,,,0.00,WUHU216HW,2013-11-12 02:56:00,
2013-11-11 19:01:00,57.1,42.9,30.11,East,90,0.7,0.9,59,0.00,,,0.00,WUHU216HW,2013-11-12 03:01:00,
2013-11-11 19:06:00,56.9,42.8,30.12,SW,225,1.1,1.1,59,0.00,,,0.00,WUHU216HW,2013-11-12 03:06:00,
2013-11-11 19:11:00,56.9,42.8,30.11,SSW,203,1.1,1.1,59,0.00,,,0.00,WUHU216HW,2013-11-12 03:11:00,
2013-11-11 19:16:00,56.7,43.0,30.12,SSE,158,0.0,1.1,60,0.00,,,0.00,WUHU216HW,2013-11-12 03:16:00,
2013-11-11 19:21:00,56.5,42.8,30.12,SSE,158,0.0,1.1,60,0.00,,,0.00,WUHU216HW,2013-11-12 03:21:00,
2013-11-11 19:26:00,56.3,42.7,30.11,SSE,158,0.0,1.1,60,0.00,,,0.00,WUHU216HW,2013-11-12 03:26:00,
2013-11-11 19:31:00,56.0,42.3,30.12,SSW,203,1.1,1.1,60,0.00,,,0.00,WUHU216HW,2013-11-12 03:31:00,
2013-11-11 19:36:00,55.8,42.6,30.12,SE,135,0.0,1.3,61,0.00,,,0.00,WUHU216HW,2013-11-12 03:36:00,
2013-11-11 19:41:00,55.6,42.4,30.13,SE,135,0.7,1.3,61,0.00,,,0.00,WUHU216HW,2013-11-12 03:41:00,
2013-11-11 19:46:00,55.4,42.2,30.13,SE,135,0.4,0.9,61,0.00,,,0.00,WUHU216HW,2013-11-12 03:46:00,
2013-11-11 19:51:00,55.3,42.0,30.13,SE,135,0.0,0.9,61,0.00,,,0.00,WUHU216HW,2013-11-12 03:51:00,
2013-11-11 19:56:00,55.1,41.9,30.13,SE,135,0.0,0.0,61,0.00,,,0.00,WUHU216HW,2013-11-12 03:56:00,
2013-11-11 20:01:00,55.1,42.3,30.13,SE,135,0.0,0.0,62,0.00,,,0.00,WUHU216HW,2013-11-12 04:01:00,
2013-11-11 20:06:00,54.7,42.0,30.13,East,90,1.1,1.8,62,0.00,,,0.00,WUHU216HW,2013-11-12 04:06:00,
2013-11-11 20:11:00,54.5,41.8,30.12,East,90,0.0,1.8,62,0.00,,,0.00,WUHU216HW,2013-11-12 04:11:00,
2013-11-11 20:16:00,54.4,41.6,30.13,SE,135,1.1,1.3,62,0.00,,,0.00,WUHU216HW,2013-11-12 04:16:00,
2013-11-11 20:21:00,54.4,42.0,30.13,ESE,113,1.8,2.0,63,0.00,,,0.00,WUHU216HW,2013-11-12 04:21:00,
2013-11-11 20:26:00,54.2,41.9,30.12,ESE,113,0.7,2.0,63,0.00,,,0.00,WUHU216HW,2013-11-12 04:26:00,
2013-11-11 20:31:00,54.0,41.7,30.13,SSW,203,1.8,2.7,63,0.00,,,0.00,WUHU216HW,2013-11-12 04:31:00,
2013-11-11 20:36:00,54.0,42.0,30.14,SW,225,1.1,2.7,64,0.00,,,0.00,WUHU216HW,2013-11-12 04:36:00,
2013-11-11 20:41:00,54.0,42.0,30.14,SSW,203,0.4,1.8,64,0.00,,,0.00,WUHU216HW,2013-11-12 04:41:00,
2013-11-11 20:46:00,54.0,42.0,30.14,SSW,203,0.0,0.9,64,0.00,,,0.00,WUHU216HW,2013-11-12 04:46:00,
2013-11-11 20:51:00,53.8,41.9,30.15,ESE,113,1.3,1.3,64,0.00,,,0.00,WUHU216HW,2013-11-12 04:51:00,
2013-11-11 20:56:00,53.6,41.8,30.14,ENE,68,2.0,2.0,64,0.00,,,0.00,WUHU216HW,2013-11-12 04:56:00,
2013-11-11 21:01:00,53.6,41.8,30.14,East,90,1.1,2.0,64,0.00,,,0.00,WUHU216HW,2013-11-12 05:01:00,
2013-11-11 21:06:00,53.5,41.6,30.14,ESE,113,1.6,2.2,64,0.00,,,0.00,WUHU216HW,2013-11-12 05:06:00,
2013-11-11 21:11:00,53.3,41.4,30.15,SE,135,0.7,2.2,64,0.00,,,0.00,WUHU216HW,2013-11-12 05:11:00,
2013-11-11 21:16:00,53.1,41.2,30.14,ESE,113,1.8,1.8,64,0.00,,,0.00,WUHU216HW,2013-11-12 05:16:00,
2013-11-11 21:21:00,52.9,41.4,30.14,ENE,68,1.3,2.5,65,0.00,,,0.00,WUHU216HW,2013-11-12 05:21:00,
2013-11-11 21:26:00,52.7,41.3,30.14,ESE,113,0.9,2.5,65,0.00,,,0.00,WUHU216HW,2013-11-12 05:26:00,
2013-11-11 21:31:00,52.7,41.3,30.14,ESE,113,0.4,2.7,65,0.00,,,0.00,WUHU216HW,2013-11-12 05:31:00,
2013-11-11 21:36:00,52.7,41.3,30.15,SSW,203,1.1,2.7,65,0.00,,,0.00,WUHU216HW,2013-11-12 05:36:00,
2013-11-11 21:41:00,52.9,41.4,30.15,SW,225,1.1,2.5,65,0.00,,,0.00,WUHU216HW,2013-11-12 05:41:00,
2013-11-11 21:46:00,52.9,41.9,30.15,East,90,0.0,2.5,66,0.00,,,0.00,WUHU216HW,2013-11-12 05:46:00,
2013-11-11 21:51:00,52.9,41.9,30.15,East,90,0.0,1.8,66,0.00,,,0.00,WUHU216HW,2013-11-12 05:51:00,
2013-11-11 21:56:00,53.1,42.0,30.15,ENE,68,0.0,1.8,66,0.00,,,0.00,WUHU216HW,2013-11-12 05:56:00,
2013-11-11 22:01:00,53.1,42.0,30.15,ESE,113,0.2,2.2,66,0.00,,,0.00,WUHU216HW,2013-11-12 06:01:00,
2013-11-11 22:06:00,53.1,42.0,30.15,South,180,1.1,2.2,66,0.00,,,0.00,WUHU216HW,2013-11-12 06:06:00,
2013-11-11 22:11:00,53.1,42.0,30.15,SSW,203,0.4,1.8,66,0.00,,,0.00,WUHU216HW,2013-11-12 06:11:00,
2013-11-11 22:16:00,53.1,42.0,30.15,SSE,158,0.0,1.8,66,0.00,,,0.00,WUHU216HW,2013-11-12 06:16:00,
2013-11-11 22:21:00,53.1,42.0,30.15,East,90,1.6,1.8,66,0.00,,,0.00,WUHU216HW,2013-11-12 06:21:00,
2013-11-11 22:26:00,52.9,41.9,30.15,East,90,1.6,1.8,66,0.00,,,0.00,WUHU216HW,2013-11-12 06:26:00,
2013-11-11 22:31:00,53.1,42.0,30.15,NE,45,0.9,1.8,66,0.00,,,0.00,WUHU216HW,2013-11-12 06:31:00,
2013-11-11 22:36:00,53.3,42.2,30.15,NE,45,0.0,1.1,66,0.00,,,0.00,WUHU216HW,2013-11-12 06:36:00,
2013-11-11 22:41:00,53.3,42.2,30.15,NE,45,0.0,0.2,66,0.00,,,0.00,WUHU216HW,2013-11-12 06:41:00,
2013-11-11 22:46:00,53.5,42.4,30.14,NE,45,2.0,2.0,66,0.00,,,0.00,WUHU216HW,2013-11-12 06:46:00,
2013-11-11 22:51:00,53.6,42.9,30.13,ENE,68,0.9,2.5,67,0.00,,,0.00,WUHU216HW,2013-11-12 06:51:00,
2013-11-11 22:56:00,53.6,42.5,30.13,East,90,1.1,2.5,66,0.00,,,0.00,WUHU216HW,2013-11-12 06:56:00,
2013-11-11 23:01:00,53.6,42.5,30.13,ESE,113,1.3,1.3,66,0.00,,,0.00,WUHU216HW,2013-11-12 07:01:00,
2013-11-11 23:06:00,53.6,42.5,30.13,SSE,158,3.1,3.1,66,0.00,,,0.00,WUHU216HW,2013-11-12 07:06:00,
2013-11-11 23:11:00,53.6,42.5,30.13,SSE,158,0.7,3.1,66,0.00,,,0.00,WUHU216HW,2013-11-12 07:11:00,
2013-11-11 23:16:00,53.6,42.5,30.14,SSW,203,0.2,2.0,66,0.00,,,0.00,WUHU216HW,2013-11-12 07:16:00,
2013-11-11 23:21:00,53.8,42.7,30.13,SSW,203,0.4,1.8,66,0.00,,,0.00,WUHU216HW,2013-11-12 07:21:00,
2013-11-11 23:26:00,54.0,42.8,30.13,SSW,203,0.0,0.4,66,0.00,,,0.00,WUHU216HW,2013-11-12 07:26:00,
2013-11-11 23:31:00,54.0,42.8,30.13,SSW,203,1.1,1.1,66,0.00,,,0.00,WUHU216HW,2013-11-12 07:31:00,
2013-11-11 23:36:00,54.0,42.8,30.13,NW,315,0.4,1.1,66,0.00,,,0.00,WUHU216HW,2013-11-12 07:36:00,
2013-11-11 23:41:00,54.0,42.8,30.14,WSW,248,0.7,2.0,66,0.00,,,0.00,WUHU216HW,2013-11-12 07:41:00,
2013-11-11 23:46:00,54.2,43.0,30.14,WSW,248,1.1,2.0,66,0.00,,,0.00,WUHU216HW,2013-11-12 07:46:00,
2013-11-11 23:51:00,54.2,43.0,30.15,West,270,1.3,1.8,66,0.00,,,0.00,WUHU216HW,2013-11-12 07:51:00,
2013-11-11 23:56:00,54.2,43.5,30.15,West,270,0.7,2.2,67,0.00,,,0.00,WUHU216HW,2013-11-12 07:56:00,